Estación Meteorológica de la Universidad de Murcia
Estación Meteorológica de la Universidad de Murcia
Universidad de Murcia
 

Velocidad y dirección del vientoVelocidad y dirección del viento

 

Velocidad: 34,56 km/h a las 17:43:00 del día 23/04/2019
Dirección del viento: 299,5 º NW Rosa de los vientos a las 17:43:00 del día 23/04/2019

Nota:
N (entre 337,6º y 22,5º), NE (entre 22,6º y 67,5º), E (entre 67,6º y 112,5º), SE (entre 112,6º y 157,5º), S (entre 157,6º y 202,5º), SW (entre 202,6º y 247,5º), W (entre 247,5º y 292,5º) y NW (entre 292,6º y 337,5º)

||Velocidad últimos meses|| ----||Dirección del viento||


Velocidad

  • 1 - 34,56 km/h del día 23/04/2019
  • 2 - 30,24 km/h del día 22/04/2019
  • 3 - 24,84 km/h del día 21/04/2019
  • 4 - 57,24 km/h del día 20/04/2019
  • 5 - 24,12 km/h del día 19/04/2019
  • 6 - 37,8 km/h del día 18/04/2019
  • 7 - 35,64 km/h del día 17/04/2019
  • 8 - 39,96 km/h del día 16/04/2019
  • 9 - 31,32 km/h del día 15/04/2019
  • 10 - 33,12 km/h del día 14/04/2019
  • 11 - 28,8 km/h del día 13/04/2019
  • 12 - 39,6 km/h del día 12/04/2019
  • 13 - 39,6 km/h del día 11/04/2019
  • 14 - 57,96 km/h del día 10/04/2019
  • 15 - 45 km/h del día 09/04/2019
  • 16 - 27 km/h del día 08/04/2019
  • 17 - 61,56 km/h del día 07/04/2019
  • 18 - 42,84 km/h del día 06/04/2019
  • 19 - 45,36 km/h del día 05/04/2019
  • 20 - 31,68 km/h del día 04/04/2019
  • 21 - 36,72 km/h del día 03/04/2019
  • 22 - 34,56 km/h del día 02/04/2019
  • 23 - 19,8 km/h del día 01/04/2019
  • 24 - 37,8 km/h del día 31/03/2019
  • 25 - 37,8 km/h del día 30/03/2019
  • 26 - 37,8 km/h del día 29/03/2019
  • 27 - 37,8 km/h del día 28/03/2019
  • 28 - 37,8 km/h del día 27/03/2019
  • 29 - 37,8 km/h del día 26/03/2019
  • 30 - 37,8 km/h del día 25/03/2019
  • 31 - 37,8 km/h del día 24/03/2019
  • 32 - 37,8 km/h del día 23/03/2019
  • 33 - 37,8 km/h del día 22/03/2019
  • 34 - 37,8 km/h del día 21/03/2019
  • 35 - 37,8 km/h del día 20/03/2019
  • 36 - 29,16 km/h del día 19/03/2019
  • 37 - 30,24 km/h del día 18/03/2019
  • 38 - 34,56 km/h del día 17/03/2019
  • 39 - 26,28 km/h del día 16/03/2019
  • 40 - 18,36 km/h del día 15/03/2019
  • 41 - 30,24 km/h del día 14/03/2019
  • 42 - 37,44 km/h del día 13/03/2019
  • 43 - 24,48 km/h del día 12/03/2019
  • 44 - 37,8 km/h del día 11/03/2019
  • 45 - 22,68 km/h del día 10/03/2019
  • 46 - 21,96 km/h del día 09/03/2019
  • 47 - 28,44 km/h del día 08/03/2019
  • 48 - 32,04 km/h del día 07/03/2019
  • 49 - 57,6 km/h del día 06/03/2019
  • 50 - 26,64 km/h del día 05/03/2019
  • 51 - 22,68 km/h del día 04/03/2019
  • 52 - 21,96 km/h del día 03/03/2019
  • 53 - 21,24 km/h del día 02/03/2019
  • 54 - 19,8 km/h del día 01/03/2019
  • 55 - 22,32 km/h del día 28/02/2019
  • 56 - 23,76 km/h del día 27/02/2019
  • 57 - 21,6 km/h del día 26/02/2019
  • 58 - 21,6 km/h del día 25/02/2019

||Volver al inicio de la página||


Dirección del viento

  • 1 - 3154 º 3154 del día 31/03/2019
  • 2 - 3154 º 3154 del día 30/03/2019
  • 3 - 3154 º 3154 del día 29/03/2019
  • 4 - 3154 º 3154 del día 28/03/2019
  • 5 - 1939.24 º 1939,24 del día 28/02/2019
  • 6 - 3154 º 3154 del día 27/03/2019
  • 7 - 2245.87 º 2245,87 del día 27/02/2019
  • 8 - 3154 º 3154 del día 26/03/2019
  • 9 - 1973.75 º 1973,75 del día 26/02/2019
  • 10 - 3154 º 3154 del día 25/03/2019
  • 11 - 1939.62 º 1939,62 del día 25/02/2019
  • 12 - 2041.62 º 2041,62 del día 24/04/2019
  • 13 - 3154 º 3154 del día 24/03/2019
  • 14 - 2425.5 º 2425,5 del día 24/02/2019
  • 15 - 2194.8 º 2194,8 del día 23/04/2019
  • 16 - 3154 º 3154 del día 23/03/2019
  • 17 - 2449.38 º 2449,38 del día 22/04/2019
  • 18 - 3154 º 3154 del día 22/03/2019
  • 19 - 1959.59 º 1959,59 del día 21/04/2019
  • 20 - 3141.65 º 3141,65 del día 21/03/2019
  • 21 - 1578.5 º 1578,5 del día 20/04/2019
  • 22 - 1504.17 º 1504,17 del día 20/03/2019
  • 23 - 1733.18 º 1733,18 del día 19/04/2019
  • 24 - 1456.12 º 1456,12 del día 19/03/2019
  • 25 - 2185.45 º 2185,45 del día 18/04/2019
  • 26 - 699.18 º N del día 18/03/2019
  • 27 - 914.71 º N del día 17/04/2019
  • 28 - 2375.38 º 2375,38 del día 17/03/2019
  • 29 - 1631.78 º 1631,78 del día 16/04/2019
  • 30 - 1919.12 º 1919,12 del día 16/03/2019
  • 31 - 1430.26 º 1430,26 del día 15/04/2019
  • 32 - 1862.82 º 1862,82 del día 15/03/2019
  • 33 - 2149.3 º 2149,3 del día 14/04/2019
  • 34 - 2158.33 º 2158,33 del día 14/03/2019
  • 35 - 1927.41 º 1927,41 del día 13/04/2019
  • 36 - 1553.14 º 1553,14 del día 13/03/2019
  • 37 - 1770.09 º 1770,09 del día 12/04/2019
  • 38 - 2145.24 º 2145,24 del día 12/03/2019
  • 39 - 2208.06 º 2208,06 del día 11/04/2019
  • 40 - 1488.18 º 1488,18 del día 11/03/2019
  • 41 - 2346.1 º 2346,1 del día 10/04/2019
  • 42 - 2166.27 º 2166,27 del día 10/03/2019
  • 43 - 2380.39 º 2380,39 del día 09/04/2019
  • 44 - 1835.05 º 1835,05 del día 09/03/2019
  • 45 - 2156.47 º 2156,47 del día 08/04/2019
  • 46 - 1976.31 º 1976,31 del día 08/03/2019
  • 47 - 2343.34 º 2343,34 del día 07/04/2019
  • 48 - 2052.04 º 2052,04 del día 07/03/2019
  • 49 - 2144.03 º 2144,03 del día 06/04/2019
  • 50 - 1319.45 º 1319,45 del día 06/03/2019
  • 51 - 1738.13 º 1738,13 del día 05/04/2019
  • 52 - 1952.43 º 1952,43 del día 05/03/2019
  • 53 - 1674.59 º 1674,59 del día 04/04/2019
  • 54 - 2236.42 º 2236,42 del día 04/03/2019
  • 55 - 1897.21 º 1897,21 del día 03/04/2019
  • 56 - 2162.66 º 2162,66 del día 03/03/2019
  • 57 - 1843.77 º 1843,77 del día 02/04/2019
  • 58 - 1567.14 º 1567,14 del día 02/03/2019
  • 59 - 1998.64 º 1998,64 del día 01/04/2019
  • 60 - 1652.78 º 1652,78 del día 01/03/2019

|| Temperatura Ambiente|| Humedad relativa|| Precipitación|| Radiación Solar Global y PAR|| Temperatura y humedad del suelo|| Presión atmosférica|| Más información|| Volver a la página principal|| Volver al inicio de la página||


Estación Meteorológica de la Universidad de Murcia
http://estacion.um.es/
Informacion actualizada a: 24/04/2019 a las 23:50:00